sensor_id;sensor_type;location;lat;lon;timestamp;P1;durP1;ratioP1;P2;durP2;ratioP2
27618;SDS011;15039;50.830;4.730;2023-01-19T00:00:23;23.05;;;14.73;;
27618;SDS011;15039;50.830;4.730;2023-01-19T00:02:49;24.40;;;15.10;;
27618;SDS011;15039;50.830;4.730;2023-01-19T00:05:15;21.80;;;15.07;;
27618;SDS011;15039;50.830;4.730;2023-01-19T00:07:40;26.45;;;15.68;;
27618;SDS011;15039;50.830;4.730;2023-01-19T00:10:07;21.58;;;14.63;;
27618;SDS011;15039;50.830;4.730;2023-01-19T00:12:33;22.80;;;15.45;;
27618;SDS011;15039;50.830;4.730;2023-01-19T00:14:59;20.77;;;14.82;;
27618;SDS011;15039;50.830;4.730;2023-01-19T00:17:25;25.67;;;15.98;;
27618;SDS011;15039;50.830;4.730;2023-01-19T00:19:50;24.50;;;16.25;;
27618;SDS011;15039;50.830;4.730;2023-01-19T00:22:16;21.92;;;15.75;;
27618;SDS011;15039;50.830;4.730;2023-01-19T00:24:41;27.40;;;15.90;;
27618;SDS011;15039;50.830;4.730;2023-01-19T00:27:08;23.48;;;16.27;;
27618;SDS011;15039;50.830;4.730;2023-01-19T00:29:33;29.23;;;16.55;;
27618;SDS011;15039;50.830;4.730;2023-01-19T00:32:00;24.77;;;16.85;;
27618;SDS011;15039;50.830;4.730;2023-01-19T00:34:26;25.13;;;16.35;;
27618;SDS011;15039;50.830;4.730;2023-01-19T00:37:00;24.33;;;16.25;;
27618;SDS011;15039;50.830;4.730;2023-01-19T00:39:27;27.80;;;17.85;;
27618;SDS011;15039;50.830;4.730;2023-01-19T00:41:52;25.48;;;17.60;;
27618;SDS011;15039;50.830;4.730;2023-01-19T00:44:37;26.02;;;16.40;;
27618;SDS011;15039;50.830;4.730;2023-01-19T00:47:02;24.58;;;16.30;;
27618;SDS011;15039;50.830;4.730;2023-01-19T00:49:29;25.52;;;16.23;;
27618;SDS011;15039;50.830;4.730;2023-01-19T00:51:55;24.35;;;16.42;;
27618;SDS011;15039;50.830;4.730;2023-01-19T00:54:21;25.70;;;16.15;;
27618;SDS011;15039;50.830;4.730;2023-01-19T00:56:47;26.35;;;16.30;;
27618;SDS011;15039;50.830;4.730;2023-01-19T00:59:12;25.63;;;16.17;;
27618;SDS011;15039;50.830;4.730;2023-01-19T01:01:38;24.35;;;15.90;;
27618;SDS011;15039;50.830;4.730;2023-01-19T01:04:04;26.42;;;15.43;;
27618;SDS011;15039;50.830;4.730;2023-01-19T01:06:29;23.80;;;15.43;;
27618;SDS011;15039;50.830;4.730;2023-01-19T01:08:55;26.48;;;15.63;;
27618;SDS011;15039;50.830;4.730;2023-01-19T01:11:20;24.77;;;14.88;;
27618;SDS011;15039;50.830;4.730;2023-01-19T01:13:46;25.67;;;15.73;;
27618;SDS011;15039;50.830;4.730;2023-01-19T01:16:13;26.65;;;15.52;;
27618;SDS011;15039;50.830;4.730;2023-01-19T01:18:40;24.98;;;15.63;;
27618;SDS011;15039;50.830;4.730;2023-01-19T01:21:06;23.60;;;15.30;;
27618;SDS011;15039;50.830;4.730;2023-01-19T01:23:33;24.45;;;15.55;;
27618;SDS011;15039;50.830;4.730;2023-01-19T01:25:59;24.58;;;15.23;;
27618;SDS011;15039;50.830;4.730;2023-01-19T01:28:25;22.17;;;14.30;;
27618;SDS011;15039;50.830;4.730;2023-01-19T01:30:54;21.60;;;14.48;;
27618;SDS011;15039;50.830;4.730;2023-01-19T01:33:21;25.65;;;15.48;;
27618;SDS011;15039;50.830;4.730;2023-01-19T01:35:47;21.45;;;14.43;;
27618;SDS011;15039;50.830;4.730;2023-01-19T01:38:14;25.33;;;15.00;;
27618;SDS011;15039;50.830;4.730;2023-01-19T01:40:40;25.17;;;15.00;;
27618;SDS011;15039;50.830;4.730;2023-01-19T01:43:10;23.80;;;14.85;;
27618;SDS011;15039;50.830;4.730;2023-01-19T01:45:38;19.63;;;13.98;;
27618;SDS011;15039;50.830;4.730;2023-01-19T01:48:15;20.42;;;14.07;;
27618;SDS011;15039;50.830;4.730;2023-01-19T01:50:53;23.98;;;14.57;;
27618;SDS011;15039;50.830;4.730;2023-01-19T01:53:44;20.65;;;14.00;;
27618;SDS011;15039;50.830;4.730;2023-01-19T01:56:12;20.83;;;14.60;;
27618;SDS011;15039;50.830;4.730;2023-01-19T01:58:42;20.77;;;13.80;;
27618;SDS011;15039;50.830;4.730;2023-01-19T02:01:08;19.83;;;12.57;;
27618;SDS011;15039;50.830;4.730;2023-01-19T02:03:52;22.45;;;14.13;;
27618;SDS011;15039;50.830;4.730;2023-01-19T02:06:19;24.13;;;14.75;;
27618;SDS011;15039;50.830;4.730;2023-01-19T02:08:49;22.08;;;13.48;;
27618;SDS011;15039;50.830;4.730;2023-01-19T02:11:39;23.27;;;13.98;;
27618;SDS011;15039;50.830;4.730;2023-01-19T02:14:24;25.92;;;13.88;;
27618;SDS011;15039;50.830;4.730;2023-01-19T02:16:50;24.20;;;14.00;;
27618;SDS011;15039;50.830;4.730;2023-01-19T02:19:17;20.77;;;13.50;;
27618;SDS011;15039;50.830;4.730;2023-01-19T02:24:55;23.63;;;13.68;;
27618;SDS011;15039;50.830;4.730;2023-01-19T02:27:21;26.02;;;13.95;;
27618;SDS011;15039;50.830;4.730;2023-01-19T02:29:47;19.98;;;13.40;;
27618;SDS011;15039;50.830;4.730;2023-01-19T02:32:13;23.35;;;13.43;;
27618;SDS011;15039;50.830;4.730;2023-01-19T02:34:38;22.55;;;14.02;;
27618;SDS011;15039;50.830;4.730;2023-01-19T02:37:11;23.92;;;13.50;;
27618;SDS011;15039;50.830;4.730;2023-01-19T02:39:40;23.42;;;13.30;;
27618;SDS011;15039;50.830;4.730;2023-01-19T02:42:10;21.58;;;14.18;;
27618;SDS011;15039;50.830;4.730;2023-01-19T02:44:39;24.30;;;14.23;;
27618;SDS011;15039;50.830;4.730;2023-01-19T02:47:08;24.10;;;13.60;;
27618;SDS011;15039;50.830;4.730;2023-01-19T02:49:34;21.02;;;12.68;;
27618;SDS011;15039;50.830;4.730;2023-01-19T02:52:00;23.55;;;14.35;;
27618;SDS011;15039;50.830;4.730;2023-01-19T02:54:27;22.05;;;13.40;;
27618;SDS011;15039;50.830;4.730;2023-01-19T02:59:57;22.98;;;13.52;;
27618;SDS011;15039;50.830;4.730;2023-01-19T03:05:55;25.48;;;14.52;;
27618;SDS011;15039;50.830;4.730;2023-01-19T03:11:00;19.60;;;12.18;;
27618;SDS011;15039;50.830;4.730;2023-01-19T03:16:26;24.85;;;13.25;;
27618;SDS011;15039;50.830;4.730;2023-01-19T03:19:07;25.65;;;12.90;;
27618;SDS011;15039;50.830;4.730;2023-01-19T03:21:41;22.92;;;13.77;;
27618;SDS011;15039;50.830;4.730;2023-01-19T03:24:12;23.00;;;14.43;;
27618;SDS011;15039;50.830;4.730;2023-01-19T03:26:40;21.35;;;13.07;;
27618;SDS011;15039;50.830;4.730;2023-01-19T03:29:09;24.63;;;13.80;;
27618;SDS011;15039;50.830;4.730;2023-01-19T03:31:37;21.67;;;13.88;;
27618;SDS011;15039;50.830;4.730;2023-01-19T03:34:07;22.58;;;13.85;;
27618;SDS011;15039;50.830;4.730;2023-01-19T03:36:44;21.92;;;13.13;;
27618;SDS011;15039;50.830;4.730;2023-01-19T03:39:17;23.90;;;13.23;;
27618;SDS011;15039;50.830;4.730;2023-01-19T03:41:47;21.02;;;12.85;;
27618;SDS011;15039;50.830;4.730;2023-01-19T03:44:16;20.48;;;12.40;;
27618;SDS011;15039;50.830;4.730;2023-01-19T03:46:42;22.70;;;13.57;;
27618;SDS011;15039;50.830;4.730;2023-01-19T03:49:10;20.45;;;12.43;;
27618;SDS011;15039;50.830;4.730;2023-01-19T03:51:36;22.33;;;13.43;;
27618;SDS011;15039;50.830;4.730;2023-01-19T03:54:03;20.20;;;13.48;;
27618;SDS011;15039;50.830;4.730;2023-01-19T03:56:33;24.17;;;13.05;;
27618;SDS011;15039;50.830;4.730;2023-01-19T03:58:59;23.17;;;13.27;;
27618;SDS011;15039;50.830;4.730;2023-01-19T04:01:25;21.02;;;12.57;;
27618;SDS011;15039;50.830;4.730;2023-01-19T04:03:51;19.63;;;12.20;;
27618;SDS011;15039;50.830;4.730;2023-01-19T04:06:17;19.00;;;12.45;;
27618;SDS011;15039;50.830;4.730;2023-01-19T04:08:46;22.75;;;13.15;;
27618;SDS011;15039;50.830;4.730;2023-01-19T04:11:15;17.88;;;12.63;;
27618;SDS011;15039;50.830;4.730;2023-01-19T04:13:41;17.50;;;11.13;;
27618;SDS011;15039;50.830;4.730;2023-01-19T04:16:08;20.35;;;11.77;;
27618;SDS011;15039;50.830;4.730;2023-01-19T04:18:34;18.13;;;11.52;;
27618;SDS011;15039;50.830;4.730;2023-01-19T04:21:00;19.02;;;12.45;;
27618;SDS011;15039;50.830;4.730;2023-01-19T04:23:27;17.95;;;11.63;;
27618;SDS011;15039;50.830;4.730;2023-01-19T04:25:59;23.08;;;12.95;;
27618;SDS011;15039;50.830;4.730;2023-01-19T04:28:27;21.65;;;12.48;;
27618;SDS011;15039;50.830;4.730;2023-01-19T04:30:53;23.80;;;12.60;;
27618;SDS011;15039;50.830;4.730;2023-01-19T04:33:19;23.25;;;13.25;;
27618;SDS011;15039;50.830;4.730;2023-01-19T04:35:46;20.65;;;12.73;;
27618;SDS011;15039;50.830;4.730;2023-01-19T04:38:12;22.17;;;12.57;;
27618;SDS011;15039;50.830;4.730;2023-01-19T04:40:38;23.45;;;13.18;;
27618;SDS011;15039;50.830;4.730;2023-01-19T04:43:04;23.02;;;13.85;;
27618;SDS011;15039;50.830;4.730;2023-01-19T04:45:30;20.67;;;12.85;;
27618;SDS011;15039;50.830;4.730;2023-01-19T04:47:56;23.17;;;13.02;;
27618;SDS011;15039;50.830;4.730;2023-01-19T04:50:21;23.25;;;13.88;;
27618;SDS011;15039;50.830;4.730;2023-01-19T04:52:47;20.73;;;13.93;;
27618;SDS011;15039;50.830;4.730;2023-01-19T04:55:13;23.88;;;13.95;;
27618;SDS011;15039;50.830;4.730;2023-01-19T04:57:39;21.20;;;13.75;;
27618;SDS011;15039;50.830;4.730;2023-01-19T05:00:05;20.65;;;13.35;;
27618;SDS011;15039;50.830;4.730;2023-01-19T05:02:31;21.75;;;14.23;;
27618;SDS011;15039;50.830;4.730;2023-01-19T05:04:58;24.67;;;12.88;;
27618;SDS011;15039;50.830;4.730;2023-01-19T05:07:23;29.23;;;14.32;;
27618;SDS011;15039;50.830;4.730;2023-01-19T05:09:49;25.73;;;13.60;;
27618;SDS011;15039;50.830;4.730;2023-01-19T05:12:15;26.38;;;14.77;;
27618;SDS011;15039;50.830;4.730;2023-01-19T05:14:40;23.83;;;13.82;;
27618;SDS011;15039;50.830;4.730;2023-01-19T05:17:07;24.77;;;13.77;;
27618;SDS011;15039;50.830;4.730;2023-01-19T05:19:33;26.75;;;15.95;;
27618;SDS011;15039;50.830;4.730;2023-01-19T05:22:00;24.50;;;13.80;;
27618;SDS011;15039;50.830;4.730;2023-01-19T05:24:27;27.23;;;15.40;;
27618;SDS011;15039;50.830;4.730;2023-01-19T05:26:53;23.65;;;14.82;;
27618;SDS011;15039;50.830;4.730;2023-01-19T05:29:18;27.77;;;15.38;;
27618;SDS011;15039;50.830;4.730;2023-01-19T05:31:44;32.38;;;15.85;;
27618;SDS011;15039;50.830;4.730;2023-01-19T05:34:10;35.58;;;16.27;;
27618;SDS011;15039;50.830;4.730;2023-01-19T05:36:36;30.63;;;16.77;;
27618;SDS011;15039;50.830;4.730;2023-01-19T05:39:01;31.73;;;15.60;;
27618;SDS011;15039;50.830;4.730;2023-01-19T05:41:27;29.05;;;15.52;;
27618;SDS011;15039;50.830;4.730;2023-01-19T05:43:53;28.27;;;16.63;;
27618;SDS011;15039;50.830;4.730;2023-01-19T05:46:18;29.45;;;16.63;;
27618;SDS011;15039;50.830;4.730;2023-01-19T05:48:44;27.33;;;16.63;;
27618;SDS011;15039;50.830;4.730;2023-01-19T05:51:09;30.40;;;17.17;;
27618;SDS011;15039;50.830;4.730;2023-01-19T05:53:35;29.27;;;15.80;;
27618;SDS011;15039;50.830;4.730;2023-01-19T05:56:03;29.38;;;17.17;;
27618;SDS011;15039;50.830;4.730;2023-01-19T05:58:32;31.90;;;16.95;;
27618;SDS011;15039;50.830;4.730;2023-01-19T06:01:02;28.35;;;16.90;;
27618;SDS011;15039;50.830;4.730;2023-01-19T06:03:30;31.63;;;17.13;;
27618;SDS011;15039;50.830;4.730;2023-01-19T06:05:57;32.78;;;17.35;;
27618;SDS011;15039;50.830;4.730;2023-01-19T06:08:23;27.90;;;17.15;;
27618;SDS011;15039;50.830;4.730;2023-01-19T06:10:49;35.15;;;17.27;;
27618;SDS011;15039;50.830;4.730;2023-01-19T06:13:14;29.73;;;17.33;;
27618;SDS011;15039;50.830;4.730;2023-01-19T06:15:41;27.75;;;16.80;;
27618;SDS011;15039;50.830;4.730;2023-01-19T06:18:07;32.25;;;16.85;;
27618;SDS011;15039;50.830;4.730;2023-01-19T06:20:34;28.75;;;17.65;;
27618;SDS011;15039;50.830;4.730;2023-01-19T06:23:00;30.65;;;17.75;;
27618;SDS011;15039;50.830;4.730;2023-01-19T06:25:26;29.98;;;17.25;;
27618;SDS011;15039;50.830;4.730;2023-01-19T06:27:51;32.45;;;17.23;;
27618;SDS011;15039;50.830;4.730;2023-01-19T06:30:17;28.98;;;16.70;;
27618;SDS011;15039;50.830;4.730;2023-01-19T06:32:43;30.30;;;17.75;;
27618;SDS011;15039;50.830;4.730;2023-01-19T06:35:09;29.73;;;17.23;;
27618;SDS011;15039;50.830;4.730;2023-01-19T06:37:35;34.15;;;17.60;;
27618;SDS011;15039;50.830;4.730;2023-01-19T06:40:01;28.08;;;16.45;;
27618;SDS011;15039;50.830;4.730;2023-01-19T06:42:26;30.13;;;16.83;;
27618;SDS011;15039;50.830;4.730;2023-01-19T06:44:52;34.80;;;17.88;;
27618;SDS011;15039;50.830;4.730;2023-01-19T06:47:17;29.42;;;17.30;;
27618;SDS011;15039;50.830;4.730;2023-01-19T06:49:43;32.17;;;16.48;;
27618;SDS011;15039;50.830;4.730;2023-01-19T06:52:09;28.25;;;17.00;;
27618;SDS011;15039;50.830;4.730;2023-01-19T06:54:36;31.00;;;16.52;;
27618;SDS011;15039;50.830;4.730;2023-01-19T06:57:02;32.78;;;17.40;;
27618;SDS011;15039;50.830;4.730;2023-01-19T06:59:28;27.30;;;15.98;;
27618;SDS011;15039;50.830;4.730;2023-01-19T07:01:53;31.25;;;16.98;;
27618;SDS011;15039;50.830;4.730;2023-01-19T07:04:20;29.30;;;15.95;;
27618;SDS011;15039;50.830;4.730;2023-01-19T07:06:46;36.10;;;18.45;;
27618;SDS011;15039;50.830;4.730;2023-01-19T07:09:12;28.55;;;17.55;;
27618;SDS011;15039;50.830;4.730;2023-01-19T07:11:38;31.83;;;17.70;;
27618;SDS011;15039;50.830;4.730;2023-01-19T07:14:03;28.98;;;17.55;;
27618;SDS011;15039;50.830;4.730;2023-01-19T07:16:29;33.55;;;17.65;;
27618;SDS011;15039;50.830;4.730;2023-01-19T07:18:55;30.88;;;17.85;;
27618;SDS011;15039;50.830;4.730;2023-01-19T07:21:21;36.15;;;17.83;;
27618;SDS011;15039;50.830;4.730;2023-01-19T07:23:50;33.67;;;17.75;;
27618;SDS011;15039;50.830;4.730;2023-01-19T07:26:16;32.70;;;18.58;;
27618;SDS011;15039;50.830;4.730;2023-01-19T07:28:45;29.42;;;17.27;;
27618;SDS011;15039;50.830;4.730;2023-01-19T07:31:11;37.10;;;17.05;;
27618;SDS011;15039;50.830;4.730;2023-01-19T07:33:37;30.77;;;18.02;;
27618;SDS011;15039;50.830;4.730;2023-01-19T07:36:02;32.92;;;17.65;;
27618;SDS011;15039;50.830;4.730;2023-01-19T07:38:28;32.10;;;18.23;;
27618;SDS011;15039;50.830;4.730;2023-01-19T07:41:00;34.72;;;18.70;;
27618;SDS011;15039;50.830;4.730;2023-01-19T07:43:28;30.45;;;17.40;;
27618;SDS011;15039;50.830;4.730;2023-01-19T07:46:00;37.50;;;18.23;;
27618;SDS011;15039;50.830;4.730;2023-01-19T07:48:28;33.83;;;18.42;;
27618;SDS011;15039;50.830;4.730;2023-01-19T07:51:01;30.90;;;17.48;;
27618;SDS011;15039;50.830;4.730;2023-01-19T07:53:36;31.27;;;17.50;;
27618;SDS011;15039;50.830;4.730;2023-01-19T07:56:02;31.40;;;19.35;;
27618;SDS011;15039;50.830;4.730;2023-01-19T08:00:57;33.30;;;18.15;;
27618;SDS011;15039;50.830;4.730;2023-01-19T08:03:22;36.47;;;17.65;;
27618;SDS011;15039;50.830;4.730;2023-01-19T08:05:48;31.88;;;18.15;;
27618;SDS011;15039;50.830;4.730;2023-01-19T08:08:15;31.55;;;17.98;;
27618;SDS011;15039;50.830;4.730;2023-01-19T08:10:42;38.72;;;18.48;;
27618;SDS011;15039;50.830;4.730;2023-01-19T08:13:07;36.40;;;18.70;;
27618;SDS011;15039;50.830;4.730;2023-01-19T08:15:33;39.20;;;19.55;;
27618;SDS011;15039;50.830;4.730;2023-01-19T08:18:02;32.15;;;18.27;;
27618;SDS011;15039;50.830;4.730;2023-01-19T08:20:33;31.90;;;18.00;;
27618;SDS011;15039;50.830;4.730;2023-01-19T08:23:00;34.90;;;18.23;;
27618;SDS011;15039;50.830;4.730;2023-01-19T08:28:06;29.88;;;18.88;;
27618;SDS011;15039;50.830;4.730;2023-01-19T08:30:33;37.22;;;18.50;;
27618;SDS011;15039;50.830;4.730;2023-01-19T08:32:59;33.00;;;17.23;;
27618;SDS011;15039;50.830;4.730;2023-01-19T08:35:31;34.97;;;17.40;;
27618;SDS011;15039;50.830;4.730;2023-01-19T08:37:59;32.65;;;18.30;;
27618;SDS011;15039;50.830;4.730;2023-01-19T08:40:28;32.20;;;17.60;;
27618;SDS011;15039;50.830;4.730;2023-01-19T08:42:59;36.33;;;17.50;;
27618;SDS011;15039;50.830;4.730;2023-01-19T08:45:27;31.33;;;18.25;;
27618;SDS011;15039;50.830;4.730;2023-01-19T08:47:54;36.25;;;18.48;;
27618;SDS011;15039;50.830;4.730;2023-01-19T08:50:22;31.52;;;17.52;;
27618;SDS011;15039;50.830;4.730;2023-01-19T08:52:49;31.63;;;17.50;;
27618;SDS011;15039;50.830;4.730;2023-01-19T08:55:14;33.90;;;18.08;;
27618;SDS011;15039;50.830;4.730;2023-01-19T08:57:40;29.63;;;17.65;;
27618;SDS011;15039;50.830;4.730;2023-01-19T09:00:06;31.20;;;17.13;;
27618;SDS011;15039;50.830;4.730;2023-01-19T09:02:33;29.45;;;16.20;;
27618;SDS011;15039;50.830;4.730;2023-01-19T09:04:58;31.13;;;17.98;;
27618;SDS011;15039;50.830;4.730;2023-01-19T09:07:24;28.50;;;16.52;;
27618;SDS011;15039;50.830;4.730;2023-01-19T09:09:50;27.92;;;16.27;;
27618;SDS011;15039;50.830;4.730;2023-01-19T09:12:15;30.00;;;16.55;;
27618;SDS011;15039;50.830;4.730;2023-01-19T09:14:41;26.10;;;14.75;;
27618;SDS011;15039;50.830;4.730;2023-01-19T09:17:06;26.05;;;15.90;;
27618;SDS011;15039;50.830;4.730;2023-01-19T09:19:32;26.45;;;15.52;;
27618;SDS011;15039;50.830;4.730;2023-01-19T09:21:58;25.48;;;15.32;;
27618;SDS011;15039;50.830;4.730;2023-01-19T09:24:23;27.90;;;16.70;;
27618;SDS011;15039;50.830;4.730;2023-01-19T09:26:49;23.90;;;15.48;;
27618;SDS011;15039;50.830;4.730;2023-01-19T09:29:15;25.35;;;16.05;;
27618;SDS011;15039;50.830;4.730;2023-01-19T09:31:41;22.63;;;14.52;;
27618;SDS011;15039;50.830;4.730;2023-01-19T09:34:08;28.25;;;14.73;;
27618;SDS011;15039;50.830;4.730;2023-01-19T09:36:34;22.88;;;15.15;;
27618;SDS011;15039;50.830;4.730;2023-01-19T09:39:02;21.73;;;13.93;;
27618;SDS011;15039;50.830;4.730;2023-01-19T09:41:28;22.58;;;14.55;;
27618;SDS011;15039;50.830;4.730;2023-01-19T09:43:58;23.33;;;13.60;;
27618;SDS011;15039;50.830;4.730;2023-01-19T09:46:37;24.92;;;13.80;;
27618;SDS011;15039;50.830;4.730;2023-01-19T09:49:13;23.20;;;13.95;;
27618;SDS011;15039;50.830;4.730;2023-01-19T09:52:07;22.42;;;13.85;;
27618;SDS011;15039;50.830;4.730;2023-01-19T09:54:39;25.23;;;14.45;;
27618;SDS011;15039;50.830;4.730;2023-01-19T09:57:13;22.02;;;13.32;;
27618;SDS011;15039;50.830;4.730;2023-01-19T09:59:39;23.10;;;13.65;;
27618;SDS011;15039;50.830;4.730;2023-01-19T10:05:31;23.48;;;14.48;;
27618;SDS011;15039;50.830;4.730;2023-01-19T10:08:00;24.20;;;13.38;;
27618;SDS011;15039;50.830;4.730;2023-01-19T10:10:51;25.50;;;13.30;;
27618;SDS011;15039;50.830;4.730;2023-01-19T10:18:44;26.50;;;13.73;;
27618;SDS011;15039;50.830;4.730;2023-01-19T10:24:05;18.10;;;12.40;;
27618;SDS011;15039;50.830;4.730;2023-01-19T10:26:41;23.13;;;13.20;;
27618;SDS011;15039;50.830;4.730;2023-01-19T10:34:42;23.88;;;13.77;;
27618;SDS011;15039;50.830;4.730;2023-01-19T10:39:45;23.67;;;13.40;;
27618;SDS011;15039;50.830;4.730;2023-01-19T10:42:17;22.40;;;13.98;;
27618;SDS011;15039;50.830;4.730;2023-01-19T10:44:43;36.67;;;14.50;;
27618;SDS011;15039;50.830;4.730;2023-01-19T10:47:14;20.52;;;13.27;;
27618;SDS011;15039;50.830;4.730;2023-01-19T10:49:42;23.02;;;13.10;;
27618;SDS011;15039;50.830;4.730;2023-01-19T10:52:50;20.75;;;12.20;;
27618;SDS011;15039;50.830;4.730;2023-01-19T10:54:59;19.35;;;12.55;;
27618;SDS011;15039;50.830;4.730;2023-01-19T10:57:27;22.65;;;12.13;;
27618;SDS011;15039;50.830;4.730;2023-01-19T10:59:56;23.17;;;12.23;;
27618;SDS011;15039;50.830;4.730;2023-01-19T11:02:23;20.42;;;11.32;;
27618;SDS011;15039;50.830;4.730;2023-01-19T11:04:56;24.15;;;12.15;;
27618;SDS011;15039;50.830;4.730;2023-01-19T11:07:42;20.63;;;11.38;;
27618;SDS011;15039;50.830;4.730;2023-01-19T11:12:40;21.40;;;11.13;;
27618;SDS011;15039;50.830;4.730;2023-01-19T11:15:20;18.85;;;11.52;;
27618;SDS011;15039;50.830;4.730;2023-01-19T11:17:46;21.00;;;12.20;;
27618;SDS011;15039;50.830;4.730;2023-01-19T11:20:20;17.90;;;10.35;;
27618;SDS011;15039;50.830;4.730;2023-01-19T11:22:48;18.95;;;11.45;;
27618;SDS011;15039;50.830;4.730;2023-01-19T11:25:47;21.08;;;11.23;;
27618;SDS011;15039;50.830;4.730;2023-01-19T11:28:18;17.23;;;10.75;;
27618;SDS011;15039;50.830;4.730;2023-01-19T11:33:40;18.77;;;10.93;;
27618;SDS011;15039;50.830;4.730;2023-01-19T11:36:14;15.45;;;11.27;;
27618;SDS011;15039;50.830;4.730;2023-01-19T11:38:50;20.40;;;11.15;;
27618;SDS011;15039;50.830;4.730;2023-01-19T11:41:20;15.52;;;9.57;;
27618;SDS011;15039;50.830;4.730;2023-01-19T11:43:50;17.35;;;9.60;;
27618;SDS011;15039;50.830;4.730;2023-01-19T11:46:19;17.63;;;9.73;;
27618;SDS011;15039;50.830;4.730;2023-01-19T11:48:57;14.07;;;9.55;;
27618;SDS011;15039;50.830;4.730;2023-01-19T11:51:28;16.98;;;11.02;;
27618;SDS011;15039;50.830;4.730;2023-01-19T11:53:59;17.60;;;10.50;;
27618;SDS011;15039;50.830;4.730;2023-01-19T11:56:29;17.25;;;9.80;;
27618;SDS011;15039;50.830;4.730;2023-01-19T11:58:55;17.27;;;10.20;;
27618;SDS011;15039;50.830;4.730;2023-01-19T12:01:21;19.92;;;10.50;;
27618;SDS011;15039;50.830;4.730;2023-01-19T12:04:18;20.63;;;9.75;;
27618;SDS011;15039;50.830;4.730;2023-01-19T12:06:49;17.65;;;9.63;;
27618;SDS011;15039;50.830;4.730;2023-01-19T12:11:54;16.60;;;10.43;;
27618;SDS011;15039;50.830;4.730;2023-01-19T12:14:40;16.80;;;11.73;;
27618;SDS011;15039;50.830;4.730;2023-01-19T12:17:24;17.42;;;9.65;;
27618;SDS011;15039;50.830;4.730;2023-01-19T12:22:49;18.05;;;9.57;;
27618;SDS011;15039;50.830;4.730;2023-01-19T12:28:31;15.70;;;9.70;;
27618;SDS011;15039;50.830;4.730;2023-01-19T12:30:59;16.77;;;9.05;;
27618;SDS011;15039;50.830;4.730;2023-01-19T12:41:44;16.73;;;9.25;;
27618;SDS011;15039;50.830;4.730;2023-01-19T12:49:26;16.92;;;9.57;;
27618;SDS011;15039;50.830;4.730;2023-01-19T12:54:52;13.75;;;9.07;;
27618;SDS011;15039;50.830;4.730;2023-01-19T12:59:55;14.82;;;9.38;;
27618;SDS011;15039;50.830;4.730;2023-01-19T13:08:20;11.60;;;8.20;;
27618;SDS011;15039;50.830;4.730;2023-01-19T13:13:31;10.77;;;7.68;;
27618;SDS011;15039;50.830;4.730;2023-01-19T13:18:42;17.50;;;8.30;;
27618;SDS011;15039;50.830;4.730;2023-01-19T13:21:27;9.98;;;6.60;;
27618;SDS011;15039;50.830;4.730;2023-01-19T13:26:35;14.50;;;7.20;;
27618;SDS011;15039;50.830;4.730;2023-01-19T13:31:32;14.20;;;7.35;;
27618;SDS011;15039;50.830;4.730;2023-01-19T13:34:00;12.43;;;7.15;;
27618;SDS011;15039;50.830;4.730;2023-01-19T13:36:28;11.10;;;6.85;;
27618;SDS011;15039;50.830;4.730;2023-01-19T13:39:11;11.18;;;7.43;;
27618;SDS011;15039;50.830;4.730;2023-01-19T13:41:40;12.10;;;7.05;;
27618;SDS011;15039;50.830;4.730;2023-01-19T13:44:18;8.18;;;6.75;;
27618;SDS011;15039;50.830;4.730;2023-01-19T13:47:00;15.40;;;7.53;;
27618;SDS011;15039;50.830;4.730;2023-01-19T13:49:29;11.33;;;7.30;;
27618;SDS011;15039;50.830;4.730;2023-01-19T13:54:30;12.70;;;7.70;;
27618;SDS011;15039;50.830;4.730;2023-01-19T13:56:56;12.20;;;7.50;;
27618;SDS011;15039;50.830;4.730;2023-01-19T13:59:21;11.50;;;7.47;;
27618;SDS011;15039;50.830;4.730;2023-01-19T14:01:47;9.82;;;7.20;;
27618;SDS011;15039;50.830;4.730;2023-01-19T14:04:30;11.45;;;7.45;;
27618;SDS011;15039;50.830;4.730;2023-01-19T14:06:59;14.02;;;7.28;;
27618;SDS011;15039;50.830;4.730;2023-01-19T14:09:28;12.18;;;7.57;;
27618;SDS011;15039;50.830;4.730;2023-01-19T14:12:10;15.23;;;7.65;;
27618;SDS011;15039;50.830;4.730;2023-01-19T14:14:37;10.45;;;6.95;;
27618;SDS011;15039;50.830;4.730;2023-01-19T14:17:03;11.27;;;6.22;;
27618;SDS011;15039;50.830;4.730;2023-01-19T14:19:28;9.70;;;6.82;;
27618;SDS011;15039;50.830;4.730;2023-01-19T14:22:10;10.18;;;6.97;;
27618;SDS011;15039;50.830;4.730;2023-01-19T14:24:36;10.30;;;7.15;;
27618;SDS011;15039;50.830;4.730;2023-01-19T14:27:07;15.38;;;8.07;;
27618;SDS011;15039;50.830;4.730;2023-01-19T14:29:45;11.95;;;7.65;;
27618;SDS011;15039;50.830;4.730;2023-01-19T14:32:14;12.05;;;6.93;;
27618;SDS011;15039;50.830;4.730;2023-01-19T14:39:53;11.85;;;8.40;;
27618;SDS011;15039;50.830;4.730;2023-01-19T14:42:35;12.07;;;7.82;;
27618;SDS011;15039;50.830;4.730;2023-01-19T14:45:04;15.40;;;9.10;;
27618;SDS011;15039;50.830;4.730;2023-01-19T14:47:38;12.55;;;7.55;;
27618;SDS011;15039;50.830;4.730;2023-01-19T14:50:23;13.30;;;7.75;;
27618;SDS011;15039;50.830;4.730;2023-01-19T14:52:59;13.23;;;7.35;;
27618;SDS011;15039;50.830;4.730;2023-01-19T14:55:31;13.73;;;7.95;;
27618;SDS011;15039;50.830;4.730;2023-01-19T14:58:00;10.57;;;7.00;;
27618;SDS011;15039;50.830;4.730;2023-01-19T15:00:26;12.32;;;7.85;;
27618;SDS011;15039;50.830;4.730;2023-01-19T15:02:51;12.45;;;8.02;;
27618;SDS011;15039;50.830;4.730;2023-01-19T15:05:17;13.07;;;8.82;;
27618;SDS011;15039;50.830;4.730;2023-01-19T15:07:44;11.77;;;7.70;;
27618;SDS011;15039;50.830;4.730;2023-01-19T15:10:20;11.38;;;7.60;;
27618;SDS011;15039;50.830;4.730;2023-01-19T15:12:48;11.35;;;7.65;;
27618;SDS011;15039;50.830;4.730;2023-01-19T15:15:15;12.02;;;8.52;;
27618;SDS011;15039;50.830;4.730;2023-01-19T15:18:02;14.50;;;8.68;;
27618;SDS011;15039;50.830;4.730;2023-01-19T15:20:30;14.57;;;8.77;;
27618;SDS011;15039;50.830;4.730;2023-01-19T15:22:56;11.23;;;8.32;;
27618;SDS011;15039;50.830;4.730;2023-01-19T15:25:22;12.25;;;8.75;;
27618;SDS011;15039;50.830;4.730;2023-01-19T15:28:12;14.13;;;8.70;;
27618;SDS011;15039;50.830;4.730;2023-01-19T15:30:40;14.55;;;8.55;;
27618;SDS011;15039;50.830;4.730;2023-01-19T15:33:05;13.20;;;8.88;;
27618;SDS011;15039;50.830;4.730;2023-01-19T15:35:33;17.60;;;10.43;;
27618;SDS011;15039;50.830;4.730;2023-01-19T15:37:58;14.20;;;9.65;;
27618;SDS011;15039;50.830;4.730;2023-01-19T15:40:25;12.68;;;8.80;;
27618;SDS011;15039;50.830;4.730;2023-01-19T15:42:50;14.98;;;9.63;;
27618;SDS011;15039;50.830;4.730;2023-01-19T15:45:35;17.05;;;10.07;;
27618;SDS011;15039;50.830;4.730;2023-01-19T15:48:14;13.20;;;9.27;;
27618;SDS011;15039;50.830;4.730;2023-01-19T15:50:40;15.98;;;10.05;;
27618;SDS011;15039;50.830;4.730;2023-01-19T15:53:11;14.20;;;9.82;;
27618;SDS011;15039;50.830;4.730;2023-01-19T15:55:41;14.07;;;9.48;;
27618;SDS011;15039;50.830;4.730;2023-01-19T15:58:07;15.98;;;10.13;;
27618;SDS011;15039;50.830;4.730;2023-01-19T16:00:33;14.80;;;9.55;;
27618;SDS011;15039;50.830;4.730;2023-01-19T16:03:00;15.75;;;10.38;;
27618;SDS011;15039;50.830;4.730;2023-01-19T16:05:26;16.00;;;10.40;;
27618;SDS011;15039;50.830;4.730;2023-01-19T16:07:52;14.82;;;10.27;;
27618;SDS011;15039;50.830;4.730;2023-01-19T16:10:18;15.65;;;10.68;;